Bellevue, WA (98004)

3:53 AM PDT on September 05, 2015 (GMT -0700)
Bellevue - Downtown Park | | Change Station
CLOSE
Current Station
Personal Weather Station
Location: Bellevue, WA
Elevation: 100 ft
Nearby Weather Stations

Elev 100 ft 47.61 °N, 122.20 °W | Updated 20 seconds ago

Clear
Clear
48.9 °F
Feels Like 49 °F
N
0.0
Wind Variable Wind from ENE
Gusts 0.0 mph

Today
High -- | Low -- °F
--% Chance of Precip.
Yesterday
High -- | Low -- °F
Precip. -- in
6:32 AM 7:41 PM
Waning Gibbous, 50% visible
Pressure 30.03 in
Visibility 10.0 miles
Clouds Clear
Windchill 49 °F
Dew Point 47 °F
Humidity 92%
Rainfall 0.00 in
Snow Depth Not available.
UV 0 out of 12
Pollen 3.00 out of 12
Air Quality Not available.
Flu Activity Not available.
METAR KBFI 050953Z 14003KT 10SM CLR 11/08 A3003 RMK AO2 SLP167 T01110083
Pressure 30.03 in
Visibility 10.0 miles
Clouds Clear
Windchill 49 °F
Dew Point 47 °F
Humidity 92%
Rainfall 0.00 in
Snow Depth Not available.
UV 0 out of 12
Pollen 3.00 out of 12
Air Quality Not available.
Flu Activity Not available.
METAR KBFI 050953Z 14003KT 10SM CLR 11/08 A3003 RMK AO2 SLP167 T01110083

10-Day Weather Forecast

×

Almanac

Astronomy

Sep. 05, 2015 Rise Set
Actual Time
Civil Twilight
Nautical Twilight
Astronomical Twilight
Moon
Length of Visible Light
Length of Day
Tomorrow will be .
, % of the Moon is Illuminated

Today's Extremes

State Highs State Lows

Community

WunderPhotos

Upload Photos

1,852,439 photos uploaded!

WunderBlogs® & News

Nearby

Air Quality

  Air Quality AQ Index Pollutant
Not available.

Snow Depth

Station Depth Elevation

Earthquake Activity

City Distance Mag. Time & Date
Minimum magnitude displayed is 2.5.

Coastal Water Temperatures

Place Temperature

Stations

Nearby Weather Stations

Station Location Temp. Windchill Dew Point Humidity Wind Precip. Elev Updated Type